Terminal Aerodrome Forecast
Issued by NWS

Home | Current Version | Previous Version | Text Only | Print | Product List | Glossary On
Versions: 1 2 3 4 5 6 7 8 9 10 11 12 13
000
FTUS46 KPDT 250520
TAFDLS
TAF
KDLS 250520Z 2506/2606 30010KT P6SM SCT100
     FM251500 31011G19KT P6SM FEW080
     FM251900 31018G27KT P6SM FEW060
     FM260300 30014G22KT P6SM SKC=

USA.gov is the U.S. government's official web portal to all federal, state and local government web resources and services.